Time;durP1;ratioP1;P1;durP2;ratioP2;P2;SDS_P1;SDS_P2;PMS_P1;PMS_P2;Temp;Humidity;BMP_temperature;BMP_pressure;BME280_temperature;BME280_humidity;BME280_pressure;Samples;Min_cycle;Max_cycle;Signal;HPM_P1;HPM_P2
2023/07/22 00:00:26;;;;;;;11.65;5.78;;;;;;;-142.75;100.00;76312.44;5068543;28;20024;-64
2023/07/22 00:02:51;;;;;;;10.80;5.97;;;;;;;-142.75;100.00;76318.34;5070457;28;20508;-64
2023/07/22 00:05:22;;;;;;;10.25;5.13;;;;;;;-142.75;100.00;76320.31;5084945;28;20024;-64
2023/07/22 00:07:48;;;;;;;10.98;5.60;;;;;;;-142.75;100.00;76320.31;5090084;28;20020;-63
2023/07/22 00:10:13;;;;;;;10.00;5.60;;;;;;;-142.75;100.00;76328.19;5089625;28;20096;-64
2023/07/22 00:12:39;;;;;;;14.48;6.05;;;;;;;-142.75;100.00;76332.13;5090129;28;20027;-64
2023/07/22 00:15:06;;;;;;;12.55;5.70;;;;;;;-142.75;100.00;76334.09;5089918;28;20041;-64
2023/07/22 00:17:31;;;;;;;10.77;6.22;;;;;;;-142.75;100.00;76332.13;5089707;28;20039;-64
2023/07/22 00:19:56;;;;;;;19.25;6.35;;;;;;;-142.75;100.00;76330.16;5089218;28;20028;-63
2023/07/22 00:22:22;;;;;;;11.43;5.72;;;;;;;-142.75;100.00;76330.16;5089508;28;20035;-63
2023/07/22 00:24:47;;;;;;;11.85;5.70;;;;;;;-142.75;100.00;76332.13;5089435;28;20035;-63
2023/07/22 00:27:13;;;;;;;12.27;6.35;;;;;;;-142.75;100.00;76338.03;5089590;28;20536;-63
2023/07/22 00:29:38;;;;;;;10.25;5.30;;;;;;;-142.75;100.00;76334.09;5089277;28;20055;-63
2023/07/22 00:32:07;;;;;;;9.02;4.97;;;;;;;-142.75;100.00;76320.31;5085090;28;20024;-64
2023/07/22 00:34:32;;;;;;;12.70;5.15;;;;;;;-142.75;100.00;76326.22;5069739;28;20403;-64
2023/07/22 00:36:57;;;;;;;11.23;5.07;;;;;;;-142.75;100.00;76330.16;5069097;28;20028;-63
2023/07/22 00:39:23;;;;;;;13.50;4.93;;;;;;;-142.75;100.00;76322.28;5069380;28;20048;-63
2023/07/22 00:41:48;;;;;;;11.35;5.78;;;;;;;-142.75;100.00;76330.16;5069060;28;20025;-63
2023/07/22 00:44:14;;;;;;;8.40;4.95;;;;;;;-142.75;100.00;76330.16;5068975;28;20024;-63
2023/07/22 00:46:39;;;;;;;8.05;4.88;;;;;;;-142.75;100.00;76340.00;5069181;28;20027;-63
2023/07/22 00:49:07;;;;;;;10.68;5.53;;;;;;;-142.75;100.00;76334.09;5068957;28;20341;-63
2023/07/22 00:51:32;;;;;;;10.80;5.80;;;;;;;-142.75;100.00;76330.16;5068760;28;20028;-63
2023/07/22 00:53:58;;;;;;;9.82;5.32;;;;;;;-142.75;100.00;76328.19;5068906;28;20020;-63
2023/07/22 00:56:23;;;;;;;10.65;4.90;;;;;;;-142.75;100.00;76326.22;5068621;28;20038;-63
2023/07/22 00:58:49;;;;;;;8.68;4.78;;;;;;;-142.75;100.00;76330.16;5068626;28;20099;-63
2023/07/22 01:01:14;;;;;;;11.80;5.43;;;;;;;-142.75;100.00;76328.19;5068571;28;20567;-63
2023/07/22 01:03:41;;;;;;;11.05;4.82;;;;;;;-142.75;100.00;76326.22;5068932;28;20035;-63
2023/07/22 01:06:07;;;;;;;8.23;4.95;;;;;;;-142.75;100.00;76328.19;5068599;28;20426;-63
2023/07/22 01:08:32;;;;;;;11.40;4.70;;;;;;;-142.75;100.00;76330.16;5068585;28;20024;-64
2023/07/22 01:10:59;;;;;;;8.05;4.28;;;;;;;-142.75;100.00;76338.03;5074545;28;20168;-63
2023/07/22 01:13:24;;;;;;;11.27;5.13;;;;;;;-142.75;100.00;76355.72;5088765;28;20030;-63
2023/07/22 01:15:49;;;;;;;10.00;5.10;;;;;;;-142.75;100.00;76332.13;5088897;28;20020;-63
2023/07/22 01:18:15;;;;;;;9.75;5.20;;;;;;;-142.75;100.00;76318.34;5088770;28;20503;-63
2023/07/22 01:20:42;;;;;;;10.05;5.20;;;;;;;-142.75;100.00;76304.56;5088381;28;20110;-64
2023/07/22 01:23:08;;;;;;;9.90;5.43;;;;;;;-142.75;100.00;76306.53;5088542;28;20028;-63
2023/07/22 01:25:33;;;;;;;9.82;5.00;;;;;;;-142.75;100.00;76322.28;5088393;28;20028;-63
2023/07/22 01:27:59;;;;;;;8.93;4.50;;;;;;;-142.75;100.00;76306.53;5088410;28;20028;-63
2023/07/22 01:30:25;;;;;;;8.77;4.38;;;;;;;-142.75;100.00;76304.56;5088264;28;20023;-63
2023/07/22 01:32:50;;;;;;;9.48;4.60;;;;;;;-142.75;100.00;76300.63;5087021;28;20498;-63
2023/07/22 01:35:16;;;;;;;8.27;4.15;;;;;;;-142.75;100.00;76294.72;5088365;28;20016;-63
2023/07/22 01:37:42;;;;;;;7.40;4.40;;;;;;;-142.75;100.00;76304.56;5088397;28;20434;-64
2023/07/22 01:40:14;;;;;;;7.07;3.90;;;;;;;-142.75;100.00;76302.59;5087832;28;20016;-63
2023/07/22 01:42:40;;;;;;;6.30;3.33;;;;;;;-142.75;100.00;76314.41;5087760;28;20052;-63
2023/07/22 01:45:07;;;;;;;8.93;3.90;;;;;;;-142.75;100.00;76318.34;5087885;28;20030;-63
2023/07/22 01:47:34;;;;;;;6.60;3.60;;;;;;;-142.75;100.00;76320.31;5087728;28;20078;-64
2023/07/22 01:49:59;;;;;;;7.95;3.80;;;;;;;-142.75;100.00;76328.19;5069589;28;20703;-64
2023/07/22 01:52:25;;;;;;;5.82;2.83;;;;;;;-142.75;100.00;76340.00;5083635;28;20135;-63
2023/07/22 01:54:50;;;;;;;4.72;2.58;;;;;;;-142.75;100.00;76338.03;5086351;28;20103;-64
2023/07/22 01:57:15;;;;;;;5.18;2.75;;;;;;;-142.75;100.00;76338.03;5070525;28;20100;-64
2023/07/22 01:59:41;;;;;;;7.03;3.00;;;;;;;-142.75;100.00;76332.13;5067651;28;20052;-64
2023/07/22 02:02:06;;;;;;;5.60;3.17;;;;;;;-142.75;100.00;76332.13;5068616;28;20396;-64
2023/07/22 02:04:31;;;;;;;6.40;3.05;;;;;;;-142.75;100.00;76328.19;5068341;28;20029;-63
2023/07/22 02:06:57;;;;;;;4.88;2.78;;;;;;;-142.75;100.00;76330.16;5067580;28;20054;-63
2023/07/22 02:09:22;;;;;;;6.22;2.90;;;;;;;-142.75;100.00;76334.09;5067672;28;20131;-64
2023/07/22 02:11:48;;;;;;;6.43;2.45;;;;;;;-142.75;100.00;76332.13;5067432;28;20052;-63
2023/07/22 02:14:13;;;;;;;4.70;2.55;;;;;;;-142.75;100.00;76334.09;5067594;28;20051;-65
2023/07/22 02:16:38;;;;;;;6.85;2.40;;;;;;;-142.75;100.00;76334.09;5067589;28;20021;-64
2023/07/22 02:19:04;;;;;;;6.47;2.58;;;;;;;-142.75;100.00;76326.22;5067609;28;20164;-64
2023/07/22 02:21:30;;;;;;;5.38;2.72;;;;;;;-142.75;100.00;76332.13;5065784;28;20112;-64
2023/07/22 02:23:55;;;;;;;8.18;2.50;;;;;;;-142.75;100.00;76326.22;5068846;28;20395;-64
2023/07/22 02:26:21;;;;;;;5.72;2.33;;;;;;;-142.75;100.00;76353.78;5072054;28;20056;-65
2023/07/22 02:28:46;;;;;;;4.35;2.13;;;;;;;-142.75;100.00;76340.00;5071685;28;20485;-63
2023/07/22 02:31:12;;;;;;;5.30;2.22;;;;;;;-142.75;100.00;76334.09;5071411;28;20070;-64
2023/07/22 02:33:37;;;;;;;5.15;2.58;;;;;;;-142.75;100.00;76341.97;5072143;28;20146;-64
2023/07/22 02:36:03;;;;;;;6.35;3.10;;;;;;;-142.75;100.00;76334.09;5071473;28;20384;-64
2023/07/22 02:38:29;;;;;;;6.32;2.70;;;;;;;-142.75;100.00;76328.19;5071428;28;20098;-64
2023/07/22 02:40:54;;;;;;;6.25;3.25;;;;;;;-142.75;100.00;76334.09;5071023;28;20047;-64
2023/07/22 02:43:19;;;;;;;5.78;2.83;;;;;;;-142.75;100.00;76355.72;5075020;28;20451;-64
2023/07/22 02:45:45;;;;;;;6.32;3.10;;;;;;;-142.75;100.00;76341.97;5076909;28;20020;-64
2023/07/22 02:48:10;;;;;;;5.63;2.60;;;;;;;-142.75;100.00;76345.91;5091538;28;20687;-65
2023/07/22 02:50:36;;;;;;;10.05;3.33;;;;;;;-142.75;100.00;76369.50;5090969;28;20024;-64
2023/07/22 02:53:02;;;;;;;6.35;2.47;;;;;;;-142.75;100.00;76361.63;5090480;28;20047;-64
2023/07/22 02:55:28;;;;;;;5.85;2.88;;;;;;;-142.75;100.00;76357.69;5091384;28;20020;-64
2023/07/22 02:57:53;;;;;;;4.07;2.50;;;;;;;-142.75;100.00;76349.81;5091462;28;20016;-64
2023/07/22 03:00:26;;;;;;;7.40;2.80;;;;;;;-142.75;100.00;76353.78;5089770;28;20095;-64
2023/07/22 03:02:53;;;;;;;5.20;2.60;;;;;;;-142.75;100.00;76353.78;5091465;28;20131;-64
2023/07/22 03:05:19;;;;;;;4.88;2.65;;;;;;;-142.75;100.00;76347.84;5091568;28;20020;-64
2023/07/22 03:07:44;;;;;;;6.47;2.63;;;;;;;-142.75;100.00;76353.78;5091224;28;20020;-64
2023/07/22 03:10:10;;;;;;;6.43;2.97;;;;;;;-142.75;100.00;76359.66;5090683;28;20032;-64
2023/07/22 03:12:36;;;;;;;7.80;3.30;;;;;;;-142.75;100.00;76363.59;5090877;28;20039;-64
2023/07/22 03:15:03;;;;;;;7.65;2.95;;;;;;;-142.75;100.00;76361.63;5090673;28;20024;-64
2023/07/22 03:17:29;;;;;;;8.88;3.67;;;;;;;-142.75;100.00;76365.56;5091003;28;20023;-64
2023/07/22 03:19:54;;;;;;;11.82;3.90;;;;;;;-142.75;100.00;76375.41;5090479;28;20059;-64
2023/07/22 03:22:20;;;;;;;6.68;3.38;;;;;;;-142.75;100.00;76369.50;5090719;28;20024;-64
2023/07/22 03:24:45;;;;;;;9.68;3.70;;;;;;;-142.75;100.00;76359.66;5090930;28;20600;-64
2023/07/22 03:27:12;;;;;;;7.50;3.58;;;;;;;-142.75;100.00;76351.81;5090751;28;20123;-64
2023/07/22 03:29:38;;;;;;;6.53;3.40;;;;;;;-142.75;100.00;76347.84;5090323;28;20030;-64
2023/07/22 03:32:04;;;;;;;8.30;3.60;;;;;;;-142.75;100.00;76349.81;5090850;28;20393;-64
2023/07/22 03:34:30;;;;;;;7.35;4.35;;;;;;;-142.75;100.00;76361.63;5089768;28;20024;-64
2023/07/22 03:36:56;;;;;;;11.18;4.55;;;;;;;-142.75;100.00;76353.78;5090614;28;20047;-64
2023/07/22 03:39:21;;;;;;;9.52;4.75;;;;;;;-142.75;100.00;76347.84;5090627;28;20659;-64
2023/07/22 03:41:47;;;;;;;13.65;5.78;;;;;;;-142.75;100.00;76349.81;5090001;28;20024;-63
2023/07/22 03:44:12;;;;;;;12.20;5.43;;;;;;;-142.75;100.00;76334.09;5090309;28;20028;-64
2023/07/22 03:46:38;;;;;;;11.60;5.05;;;;;;;-142.75;100.00;76318.34;5090755;28;20024;-64
2023/07/22 03:49:04;;;;;;;11.50;5.47;;;;;;;-142.75;100.00;76322.28;5090193;28;20024;-64
2023/07/22 03:51:29;;;;;;;17.17;6.10;;;;;;;-142.75;100.00;76341.97;5071322;28;20025;-64
2023/07/22 03:53:54;;;;;;;14.70;6.15;;;;;;;-142.75;100.00;76326.22;5070292;28;20357;-64
2023/07/22 03:56:20;;;;;;;16.38;8.23;;;;;;;-142.75;100.00;76345.91;5068859;28;20678;-64
2023/07/22 03:58:45;;;;;;;20.45;7.22;;;;;;;-142.75;100.00;76310.47;5069814;28;20020;-64
2023/07/22 04:01:11;;;;;;;19.05;6.53;;;;;;;-142.75;100.00;76314.41;5068554;28;20040;-64
2023/07/22 04:03:37;;;;;;;15.13;7.60;;;;;;;-142.75;100.00;76302.59;5070391;28;20107;-64
2023/07/22 04:06:02;;;;;;;17.20;7.70;;;;;;;-142.75;100.00;76304.56;5069975;28;20021;-64
2023/07/22 04:08:28;;;;;;;20.10;8.73;;;;;;;-142.75;100.00;76288.81;5069802;28;20036;-64
2023/07/22 04:10:55;;;;;;;21.65;8.57;;;;;;;-142.75;100.00;76288.81;5069550;28;20155;-64
2023/07/22 04:13:20;;;;;;;25.40;9.35;;;;;;;-142.75;100.00;76275.03;5069880;28;20022;-64
2023/07/22 04:15:49;;;;;;;21.30;8.55;;;;;;;-142.75;100.00;76267.16;5069649;28;20017;-64
2023/07/22 04:18:16;;;;;;;21.10;9.05;;;;;;;-142.75;100.00;76259.28;5069537;28;20029;-64
2023/07/22 04:20:41;;;;;;;21.83;9.18;;;;;;;-142.75;100.00;76263.22;5069431;28;20020;-64
2023/07/22 04:23:06;;;;;;;21.00;9.40;;;;;;;-142.75;100.00;76271.09;5069478;28;20502;-64
2023/07/22 04:25:32;;;;;;;19.48;9.95;;;;;;;-142.75;100.00;76263.22;5069504;28;20082;-64
2023/07/22 04:27:57;;;;;;;23.10;10.02;;;;;;;-142.75;100.00;76259.28;5069208;28;20109;-64
2023/07/22 04:30:24;;;;;;;22.92;9.55;;;;;;;-142.75;100.00;76271.09;5069172;28;20373;-64
2023/07/22 04:32:49;;;;;;;28.05;11.43;;;;;;;-142.75;100.00;76257.31;5069282;28;20032;-64
2023/07/22 04:35:17;;;;;;;24.30;10.85;;;;;;;-142.75;100.00;76273.06;5069965;28;20368;-64
2023/07/22 04:37:44;;;;;;;24.40;10.52;;;;;;;-142.75;100.00;76278.97;5069297;28;20060;-64
2023/07/22 04:40:14;;;;;;;26.77;11.45;;;;;;;-142.75;100.00;76296.69;5068852;28;20028;-64
2023/07/22 04:42:41;;;;;;;23.48;11.52;;;;;;;-142.75;100.00;76290.78;5086389;28;20057;-64
2023/07/22 04:45:08;;;;;;;31.85;12.10;;;;;;;-142.75;100.00;76277.00;5089240;28;20028;-63
2023/07/22 04:47:33;;;;;;;25.42;12.48;;;;;;;-142.75;100.00;76267.16;5088844;28;20073;-64
2023/07/22 04:49:59;;;;;;;30.25;12.43;;;;;;;-142.75;100.00;76261.25;5089064;28;20027;-64
2023/07/22 04:52:24;;;;;;;34.72;12.90;;;;;;;-142.75;100.00;76259.28;5088951;28;20020;-64
2023/07/22 04:54:49;;;;;;;31.17;12.15;;;;;;;-142.75;100.00;76277.00;5089068;28;20023;-63
2023/07/22 04:57:16;;;;;;;30.10;11.77;;;;;;;-142.75;100.00;76249.44;5089105;28;20020;-64
2023/07/22 04:59:42;;;;;;;25.63;11.35;;;;;;;-142.75;100.00;76239.59;5088692;28;20020;-64
2023/07/22 05:02:07;;;;;;;25.73;12.05;;;;;;;-142.75;100.00;76227.78;5088842;28;20035;-64
2023/07/22 05:04:33;;;;;;;31.38;12.63;;;;;;;-142.75;100.00;76210.06;5089417;28;20070;-64
2023/07/22 05:06:58;;;;;;;30.05;12.63;;;;;;;-142.75;100.00;76212.03;5088876;28;20031;-64
2023/07/22 05:09:23;;;;;;;28.60;12.48;;;;;;;-142.75;100.00;76215.97;5088863;28;20054;-63
2023/07/22 05:11:49;;;;;;;27.42;12.07;;;;;;;-142.75;100.00;76229.75;5086877;28;20051;-64
2023/07/22 05:14:14;;;;;;;23.90;11.88;;;;;;;-142.75;100.00;76208.09;5088921;28;20076;-64
2023/07/22 05:16:40;;;;;;;27.08;12.30;;;;;;;-142.75;100.00;76198.28;5089328;28;20425;-63
2023/07/22 05:19:07;;;;;;;31.48;13.55;;;;;;;-142.75;100.00;76192.38;5088478;28;20541;-63
2023/07/22 05:21:33;;;;;;;31.90;12.77;;;;;;;-142.75;100.00;76180.56;5088592;28;20111;-63
2023/07/22 05:23:58;;;;;;;30.30;12.80;;;;;;;-142.75;100.00;76176.63;5088830;28;20114;-63
2023/07/22 05:26:23;;;;;;;30.38;12.88;;;;;;;-142.75;100.00;76168.75;5068206;28;20059;-63
2023/07/22 05:28:49;;;;;;;31.80;13.68;;;;;;;-142.75;100.00;76166.78;5068314;28;20029;-63
2023/07/22 05:31:16;;;;;;;30.45;12.55;;;;;;;-142.75;100.00;76164.81;5068034;28;20028;-64
2023/07/22 05:33:41;;;;;;;29.90;13.02;;;;;;;-142.75;100.00;76164.81;5068671;28;20024;-64
2023/07/22 05:36:06;;;;;;;34.03;13.23;;;;;;;-142.75;100.00;76149.06;5068243;28;20074;-63
2023/07/22 05:38:32;;;;;;;23.75;12.73;;;;;;;-142.75;100.00;76125.44;5067991;28;20480;-64
2023/07/22 05:40:57;;;;;;;36.15;12.68;;;;;;;-142.75;100.00;76123.47;5067665;28;20514;-63
2023/07/22 05:43:23;;;;;;;29.75;13.43;;;;;;;-142.75;100.00;76113.63;5068093;28;20047;-64
2023/07/22 05:45:49;;;;;;;30.67;13.57;;;;;;;-142.75;100.00;76139.22;5087877;28;20028;-63
2023/07/22 05:48:14;;;;;;;30.35;12.75;;;;;;;-142.75;100.00;76141.19;5088104;28;20047;-65
2023/07/22 05:50:40;;;;;;;29.90;12.82;;;;;;;-142.75;100.00;76147.09;5072634;28;20399;-64
2023/07/22 05:53:05;;;;;;;26.00;12.45;;;;;;;-142.75;100.00;76125.44;5067988;28;20028;-64
2023/07/22 05:55:30;;;;;;;30.40;12.07;;;;;;;-142.75;100.00;76117.56;5067922;28;20039;-64
2023/07/22 05:57:56;;;;;;;30.40;12.95;;;;;;;-142.75;100.00;76117.56;5067406;28;20054;-64
2023/07/22 06:00:21;;;;;;;31.10;12.40;;;;;;;-142.75;100.00;76115.59;5067391;28;20108;-64
2023/07/22 06:02:48;;;;;;;30.48;12.10;;;;;;;-142.75;100.00;76101.81;5067866;28;20445;-65
2023/07/22 06:05:13;;;;;;;26.63;12.00;;;;;;;-142.75;100.00;76097.88;5068280;28;20024;-64
2023/07/22 06:07:39;;;;;;;29.42;12.82;;;;;;;-142.75;100.00;76082.13;5067834;28;20036;-64
2023/07/22 06:10:05;;;;;;;23.40;11.57;;;;;;;-142.75;100.00;76074.25;5067245;28;20016;-64
2023/07/22 06:12:30;;;;;;;27.42;12.07;;;;;;;-142.75;100.00;76074.25;5067840;28;20021;-64
2023/07/22 06:14:56;;;;;;;24.42;12.13;;;;;;;-142.75;100.00;76080.16;5067616;28;20020;-64
2023/07/22 06:17:21;;;;;;;26.98;12.43;;;;;;;-142.75;100.00;76076.22;5067604;28;20488;-64
2023/07/22 06:19:47;;;;;;;37.20;12.27;;;;;;;-142.75;100.00;76066.41;5067460;28;20435;-64
2023/07/22 06:22:12;;;;;;;27.67;11.25;;;;;;;-142.75;100.00;76062.47;5067614;28;20040;-64
2023/07/22 06:24:38;;;;;;;31.05;12.40;;;;;;;-142.75;100.00;76078.19;5067441;28;20067;-64
2023/07/22 06:27:04;;;;;;;29.15;11.48;;;;;;;-142.75;100.00;76066.41;5067650;28;20419;-64
2023/07/22 06:29:29;;;;;;;25.73;11.73;;;;;;;-142.75;100.00;76048.69;5067467;28;20043;-64
2023/07/22 06:31:54;;;;;;;26.92;12.00;;;;;;;-142.75;100.00;76032.94;5067757;28;20029;-64
2023/07/22 06:34:19;;;;;;;24.17;11.48;;;;;;;-142.75;100.00;76038.84;5068164;28;20033;-64
2023/07/22 06:36:45;;;;;;;35.45;12.45;;;;;;;-142.75;100.00;76042.78;5067636;28;20063;-64
2023/07/22 06:39:10;;;;;;;30.00;12.65;;;;;;;-142.75;100.00;76032.94;5067267;28;20479;-64
2023/07/22 06:41:35;;;;;;;29.42;12.40;;;;;;;-142.75;100.00;76015.22;5067257;28;20283;-64
2023/07/22 06:44:01;;;;;;;27.83;12.90;;;;;;;-142.75;100.00;76011.28;5066945;28;20107;-64
2023/07/22 06:46:26;;;;;;;27.30;12.57;;;;;;;-142.75;100.00;76005.38;5067496;28;20108;-64
2023/07/22 06:48:51;;;;;;;28.77;12.52;;;;;;;-142.75;100.00;75983.72;5067304;28;20071;-64
2023/07/22 06:51:17;;;;;;;29.73;13.05;;;;;;;-142.75;100.00;75971.91;5067172;28;20135;-65
2023/07/22 06:53:42;;;;;;;31.13;14.13;;;;;;;-142.75;100.00;75960.13;5067383;28;20058;-64
2023/07/22 06:56:07;;;;;;;32.88;13.25;;;;;;;-142.75;100.00;75960.13;5067225;28;20100;-64
2023/07/22 06:58:33;;;;;;;32.17;13.18;;;;;;;-142.75;100.00;75971.91;5067000;28;20036;-64
2023/07/22 07:00:58;;;;;;;29.13;12.90;;;;;;;-142.75;100.00;76003.41;5078938;28;20024;-64
2023/07/22 07:03:24;;;;;;;29.58;12.35;;;;;;;-142.75;100.00;75999.47;5087641;28;20103;-64
2023/07/22 07:05:54;;;;;;;23.13;12.45;;;;;;;-142.75;100.00;75989.63;5087708;28;20031;-64
2023/07/22 07:08:19;;;;;;;26.13;12.43;;;;;;;-142.75;100.00;75981.75;5069069;28;20438;-64
2023/07/22 07:10:44;;;;;;;26.15;11.93;;;;;;;-142.75;100.00;75983.72;5069471;28;20073;-65
2023/07/22 07:13:10;;;;;;;23.67;12.88;;;;;;;-142.75;100.00;75979.78;5070707;28;20507;-64
2023/07/22 07:15:35;;;;;;;26.30;12.48;;;;;;;-142.75;100.00;75952.25;5076126;28;20035;-64
2023/07/22 07:18:00;;;;;;;23.63;11.77;;;;;;;-142.75;100.00;75950.28;5078965;28;20016;-64
2023/07/22 07:20:26;;;;;;;20.33;10.93;;;;;;;-142.75;100.00;75954.22;5072071;28;20017;-64
2023/07/22 07:22:51;;;;;;;27.75;12.80;;;;;;;-142.75;100.00;75944.38;5070595;28;20518;-64
2023/07/22 07:25:16;;;;;;;21.77;11.55;;;;;;;-142.75;100.00;75932.56;5070851;28;20461;-64
2023/07/22 07:27:42;;;;;;;21.38;10.93;;;;;;;-142.75;100.00;75930.59;5070627;28;20039;-64
2023/07/22 07:30:08;;;;;;;21.40;12.05;;;;;;;-142.75;100.00;75940.44;5073386;28;20028;-64
2023/07/22 07:32:34;;;;;;;20.58;10.90;;;;;;;-142.75;100.00;75954.22;5074928;28;20524;-64
2023/07/22 07:34:59;;;;;;;23.10;12.02;;;;;;;-142.75;100.00;76001.44;5081886;28;20020;-65
2023/07/22 07:37:24;;;;;;;21.77;11.50;;;;;;;-142.75;100.00;76009.31;5079130;28;20107;-65
2023/07/22 07:39:50;;;;;;;23.58;11.25;;;;;;;-142.75;100.00;76019.16;5080057;28;20023;-64
2023/07/22 07:42:15;;;;;;;17.90;10.27;;;;;;;-142.75;100.00;76013.25;5085265;28;20023;-64
2023/07/22 07:44:40;;;;;;;20.25;10.20;;;;;;;-142.75;100.00;76003.41;5080246;28;20438;-64
2023/07/22 07:47:06;;;;;;;22.35;10.98;;;;;;;-142.75;100.00;76015.22;5080541;28;20024;-64
2023/07/22 07:49:31;;;;;;;21.02;10.30;;;;;;;-142.75;100.00;75983.72;5079407;28;20072;-64
2023/07/22 07:51:56;;;;;;;24.55;10.77;;;;;;;-142.75;100.00;75975.84;5072397;28;20430;-65
2023/07/22 07:54:22;;;;;;;18.40;10.00;;;;;;;-142.75;100.00;75960.13;5075260;28;20152;-65
2023/07/22 07:56:47;;;;;;;17.73;9.90;;;;;;;-142.75;100.00;75946.34;5071402;28;20048;-65
2023/07/22 07:59:12;;;;;;;18.00;9.40;;;;;;;-142.75;100.00;75928.63;5068551;28;20028;-64
2023/07/22 08:01:41;;;;;;;23.77;9.88;;;;;;;-142.75;100.00;75912.88;5075763;28;20027;-64
2023/07/22 08:04:07;;;;;;;22.80;9.80;;;;;;;-142.75;100.00;75928.63;5083871;28;20028;-64
2023/07/22 08:06:33;;;;;;;20.15;9.95;;;;;;;-142.75;100.00;75942.41;5070584;28;20039;-64
2023/07/22 08:08:58;;;;;;;20.08;9.43;;;;;;;-142.75;100.00;75928.63;5070218;28;20028;-66
2023/07/22 08:11:24;;;;;;;17.58;9.43;;;;;;;-142.75;100.00;75918.78;5082366;28;20032;-65
2023/07/22 08:13:51;;;;;;;20.85;9.18;;;;;;;-142.75;100.00;75930.59;5076555;28;20033;-66
2023/07/22 08:16:17;;;;;;;16.20;8.27;;;;;;;-142.75;100.00;75944.38;5076815;28;20422;-66
2023/07/22 08:18:43;;;;;;;18.25;8.65;;;;;;;-142.75;100.00;75920.75;5075668;28;20020;-66
2023/07/22 08:21:09;;;;;;;13.27;7.65;;;;;;;-142.75;100.00;75889.25;5084823;28;20455;-66
2023/07/22 08:23:36;;;;;;;16.38;7.35;;;;;;;-142.75;100.00;75851.88;5088229;28;20063;-64
2023/07/22 08:26:05;;;;;;;16.85;6.45;;;;;;;-142.75;100.00;75824.31;5083643;28;20028;-65
2023/07/22 08:28:30;;;;;;;15.85;5.97;;;;;;;-142.75;100.00;75871.53;5075839;28;20115;-64
2023/07/22 08:30:56;;;;;;;9.95;4.88;;;;;;;-142.75;100.00;75871.53;5080996;28;20102;-65
2023/07/22 08:33:23;;;;;;;13.27;5.05;;;;;;;-142.75;100.00;75905.00;5078317;28;20036;-64
2023/07/22 08:35:49;;;;;;;10.63;5.38;;;;;;;-142.75;100.00;75889.25;5077081;28;20095;-65
2023/07/22 08:38:14;;;;;;;11.77;4.82;;;;;;;-142.75;100.00;75916.81;5079392;28;20111;-65
2023/07/22 08:40:40;;;;;;;10.90;4.93;;;;;;;-142.75;100.00;75934.53;5076655;28;20027;-64
2023/07/22 08:43:08;;;;;;;13.60;5.20;;;;;;;-142.75;100.00;75905.00;5081775;28;20024;-64
2023/07/22 08:45:36;;;;;;;9.38;4.22;;;;;;;-142.75;100.00;75869.56;5076168;28;20066;-64
2023/07/22 08:48:07;;;;;;;10.35;4.43;;;;;;;-142.75;100.00;75853.84;5075469;28;20118;-64
2023/07/22 08:50:43;;;;;;;11.80;4.70;;;;;;;-142.75;100.00;75840.06;5078269;28;20107;-63
2023/07/22 08:53:09;;;;;;;;;;;;;;;-142.75;100.00;75845.97;5076640;28;20031;-64
2023/07/22 08:55:35;;;;;;;6.43;3.60;;;;;;;-142.75;100.00;75855.81;5075890;28;20288;-65
2023/07/22 08:58:02;;;;;;;9.50;4.05;;;;;;;-142.75;100.00;75881.38;5070150;28;20024;-65
2023/07/22 09:00:28;;;;;;;13.32;3.53;;;;;;;-142.75;100.00;75889.25;5072038;28;20458;-67
2023/07/22 09:02:54;;;;;;;10.57;3.25;;;;;;;-142.75;100.00;75930.59;5075103;28;20024;-63
2023/07/22 09:05:19;;;;;;;6.97;3.80;;;;;;;-142.75;100.00;75932.56;5078642;28;20480;-64
2023/07/22 09:07:48;;;;;;;7.75;3.83;;;;;;;-142.75;100.00;75879.41;5068625;28;20030;-64
2023/07/22 09:10:15;;;;;;;8.02;3.40;;;;;;;-142.75;100.00;75845.97;5068053;28;20024;-64
2023/07/22 09:12:41;;;;;;;9.77;3.60;;;;;;;-142.75;100.00;75893.19;5068537;28;20040;-64
2023/07/22 09:15:12;;;;;;;9.73;3.53;;;;;;;-142.75;100.00;75845.97;5068602;28;20024;-64
2023/07/22 09:17:41;;;;;;;11.05;3.70;;;;;;;-142.75;100.00;75861.69;5068362;28;20074;-63
2023/07/22 09:20:07;;;;;;;7.90;3.00;;;;;;;-142.75;100.00;75873.50;5068012;28;20078;-63
2023/07/22 09:22:34;;;;;;;5.90;3.10;;;;;;;-142.75;100.00;75810.53;5069843;28;20036;-63
2023/07/22 09:25:23;;;;;;;8.75;3.35;;;;;;;-142.75;100.00;75743.63;5070383;28;20020;-63
2023/07/22 09:27:52;;;;;;;6.07;2.75;;;;;;;-142.75;100.00;75723.94;5072161;28;20032;-63
2023/07/22 09:30:29;;;;;;;8.77;2.63;;;;;;;-142.75;100.00;75718.03;5075543;28;20099;-65
2023/07/22 09:33:00;;;;;;;11.70;3.03;;;;;;;-142.75;100.00;75784.94;5070308;28;20115;-65
2023/07/22 09:35:44;;;;;;;9.50;3.22;;;;;;;-142.75;100.00;75786.91;5079152;28;20279;-65
2023/07/22 09:38:09;;;;;;;7.72;3.15;;;;;;;-142.75;100.00;75790.84;5068298;28;20023;-66
2023/07/22 09:40:35;;;;;;;13.40;2.95;;;;;;;-142.75;100.00;75816.44;5073282;28;20028;-65
2023/07/22 09:43:02;;;;;;;5.78;2.63;;;;;;;-142.75;100.00;75840.06;5070144;28;20033;-66
2023/07/22 09:45:30;;;;;;;6.28;2.55;;;;;;;-142.75;100.00;75861.69;5067958;28;20028;-66
2023/07/22 09:47:56;;;;;;;4.22;2.20;;;;;;;-142.75;100.00;75877.44;5067882;28;20024;-66
2023/07/22 09:50:23;;;;;;;6.70;2.25;;;;;;;-142.75;100.00;75883.34;5067788;28;20025;-65
2023/07/22 09:52:59;;;;;;;4.43;2.20;;;;;;;-142.75;100.00;75903.03;5067679;28;20031;-65
2023/07/22 09:55:26;;;;;;;;;;;;;;;-142.75;100.00;75883.34;5068237;28;20024;-64
2023/07/22 09:58:02;;;;;;;7.00;2.30;;;;;;;-142.75;100.00;75885.31;5067814;28;20307;-64
2023/07/22 10:00:33;;;;;;;9.00;2.85;;;;;;;-142.75;100.00;75936.50;5067597;28;20024;-65
2023/07/22 10:03:01;;;;;;;5.43;2.10;;;;;;;-142.75;100.00;75940.44;5068226;28;20021;-65
2023/07/22 10:05:28;;;;;;;8.27;1.90;;;;;;;-142.75;100.00;75960.13;5068274;28;20090;-65
2023/07/22 10:07:58;;;;;;;6.32;2.45;;;;;;;-142.75;100.00;75954.22;5068684;28;20492;-65
2023/07/22 10:10:32;;;;;;;3.55;1.90;;;;;;;-142.75;100.00;75940.44;5068195;28;20031;-65
2023/07/22 10:12:57;;;;;;;4.32;1.77;;;;;;;-142.75;100.00;75946.34;5068445;28;20399;-64
2023/07/22 10:15:26;;;;;;;6.68;2.33;;;;;;;-142.75;100.00;75952.25;5068325;28;20017;-65
2023/07/22 10:17:53;;;;;;;4.32;1.80;;;;;;;-142.75;100.00;75966.00;5068255;28;20055;-65
2023/07/22 10:20:19;;;;;;;3.28;1.50;;;;;;;-142.75;100.00;75977.81;5068017;28;20097;-66
2023/07/22 10:22:46;;;;;;;6.13;1.73;;;;;;;-142.75;100.00;75969.94;5068347;28;20461;-65
2023/07/22 10:25:14;;;;;;;4.13;1.90;;;;;;;-142.75;100.00;75954.22;5068108;28;20103;-65
2023/07/22 10:27:41;;;;;;;3.50;1.67;;;;;;;-142.75;100.00;75924.69;5068219;28;20033;-65
2023/07/22 10:30:08;;;;;;;5.13;1.90;;;;;;;-142.75;100.00;75938.47;5067960;28;20032;-64
2023/07/22 10:32:36;;;;;;;6.07;2.15;;;;;;;-142.75;100.00;75930.59;5068174;28;20442;-65
2023/07/22 10:35:01;;;;;;;6.43;2.17;;;;;;;-142.75;100.00;75936.50;5068122;28;20035;-65
2023/07/22 10:37:33;;;;;;;5.10;2.17;;;;;;;-142.75;100.00;75922.72;5068216;28;20029;-64
2023/07/22 10:40:18;;;;;;;5.55;2.22;;;;;;;-142.75;100.00;75908.94;5067889;28;20025;-65
2023/07/22 10:42:52;;;;;;;4.68;2.30;;;;;;;-142.75;100.00;75908.94;5068373;28;20499;-65
2023/07/22 10:45:32;;;;;;;5.20;2.17;;;;;;;-142.75;100.00;75893.19;5070004;28;20580;-65
2023/07/22 10:48:10;;;;;;;6.55;2.20;;;;;;;-142.75;100.00;75891.22;5072051;28;20086;-65
2023/07/22 10:50:46;;;;;;;4.25;1.92;;;;;;;-142.75;100.00;75897.13;5071734;28;20032;-65
2023/07/22 10:53:47;;;;;;;4.53;1.88;;;;;;;-142.75;100.00;75895.16;5071984;28;20132;-65
2023/07/22 10:56:21;;;;;;;4.95;1.80;;;;;;;-142.75;100.00;75910.91;5071463;28;20119;-65
2023/07/22 10:58:46;;;;;;;4.40;2.05;;;;;;;-142.75;100.00;75903.03;5071966;28;20020;-65